sensor_id;sensor_type;location;lat;lon;timestamp;P1;durP1;ratioP1;P2;durP2;ratioP2
40787;SDS011;26497;52.494;7.546;2022-10-23T00:01:37;39.72;;;16.27;;
40787;SDS011;26497;52.494;7.546;2022-10-23T00:04:07;46.50;;;16.67;;
40787;SDS011;26497;52.494;7.546;2022-10-23T00:06:38;41.15;;;16.50;;
40787;SDS011;26497;52.494;7.546;2022-10-23T00:09:06;54.28;;;20.42;;
40787;SDS011;26497;52.494;7.546;2022-10-23T00:11:35;49.35;;;18.77;;
40787;SDS011;26497;52.494;7.546;2022-10-23T00:14:03;48.70;;;17.90;;
40787;SDS011;26497;52.494;7.546;2022-10-23T00:16:32;38.75;;;16.50;;
40787;SDS011;26497;52.494;7.546;2022-10-23T00:19:01;44.00;;;14.52;;
40787;SDS011;26497;52.494;7.546;2022-10-23T00:21:28;46.17;;;15.20;;
40787;SDS011;26497;52.494;7.546;2022-10-23T00:23:55;37.03;;;15.88;;
40787;SDS011;26497;52.494;7.546;2022-10-23T00:26:23;43.72;;;17.67;;
40787;SDS011;26497;52.494;7.546;2022-10-23T00:28:50;58.33;;;20.33;;
40787;SDS011;26497;52.494;7.546;2022-10-23T00:31:19;60.05;;;20.42;;
40787;SDS011;26497;52.494;7.546;2022-10-23T00:33:48;54.17;;;20.25;;
40787;SDS011;26497;52.494;7.546;2022-10-23T00:36:19;71.60;;;21.15;;
40787;SDS011;26497;52.494;7.546;2022-10-23T00:38:47;67.43;;;24.15;;
40787;SDS011;26497;52.494;7.546;2022-10-23T00:41:16;45.40;;;17.65;;
40787;SDS011;26497;52.494;7.546;2022-10-23T00:46:23;42.53;;;16.00;;
40787;SDS011;26497;52.494;7.546;2022-10-23T00:48:51;51.63;;;16.95;;
40787;SDS011;26497;52.494;7.546;2022-10-23T00:51:20;59.33;;;19.15;;
40787;SDS011;26497;52.494;7.546;2022-10-23T00:53:47;51.75;;;21.02;;
40787;SDS011;26497;52.494;7.546;2022-10-23T00:56:19;50.33;;;18.35;;
40787;SDS011;26497;52.494;7.546;2022-10-23T00:58:47;50.53;;;17.20;;
40787;SDS011;26497;52.494;7.546;2022-10-23T01:01:15;73.95;;;21.25;;
40787;SDS011;26497;52.494;7.546;2022-10-23T01:06:14;57.25;;;16.75;;
40787;SDS011;26497;52.494;7.546;2022-10-23T01:09:04;55.38;;;18.00;;
40787;SDS011;26497;52.494;7.546;2022-10-23T01:11:44;50.25;;;16.58;;
40787;SDS011;26497;52.494;7.546;2022-10-23T01:14:20;58.47;;;19.00;;
40787;SDS011;26497;52.494;7.546;2022-10-23T01:16:56;56.75;;;20.52;;
40787;SDS011;26497;52.494;7.546;2022-10-23T01:19:32;63.47;;;21.08;;
40787;SDS011;26497;52.494;7.546;2022-10-23T01:22:19;52.17;;;20.20;;
40787;SDS011;26497;52.494;7.546;2022-10-23T01:25:04;73.63;;;22.73;;
40787;SDS011;26497;52.494;7.546;2022-10-23T01:27:45;71.00;;;21.90;;
40787;SDS011;26497;52.494;7.546;2022-10-23T01:30:19;51.67;;;18.17;;
40787;SDS011;26497;52.494;7.546;2022-10-23T01:32:47;53.35;;;17.58;;
40787;SDS011;26497;52.494;7.546;2022-10-23T01:35:19;52.22;;;18.67;;
40787;SDS011;26497;52.494;7.546;2022-10-23T01:37:52;59.45;;;21.15;;
40787;SDS011;26497;52.494;7.546;2022-10-23T01:40:28;67.93;;;21.27;;
40787;SDS011;26497;52.494;7.546;2022-10-23T01:43:04;69.00;;;21.17;;
40787;SDS011;26497;52.494;7.546;2022-10-23T01:45:38;74.57;;;21.15;;
40787;SDS011;26497;52.494;7.546;2022-10-23T01:48:09;61.67;;;20.05;;
40787;SDS011;26497;52.494;7.546;2022-10-23T01:50:41;59.17;;;21.55;;
40787;SDS011;26497;52.494;7.546;2022-10-23T01:53:10;55.95;;;18.80;;
40787;SDS011;26497;52.494;7.546;2022-10-23T01:55:38;66.05;;;19.25;;
40787;SDS011;26497;52.494;7.546;2022-10-23T01:58:08;58.60;;;20.38;;
40787;SDS011;26497;52.494;7.546;2022-10-23T02:00:37;56.67;;;19.10;;
40787;SDS011;26497;52.494;7.546;2022-10-23T02:03:07;60.10;;;21.33;;
40787;SDS011;26497;52.494;7.546;2022-10-23T02:05:35;73.13;;;20.63;;
40787;SDS011;26497;52.494;7.546;2022-10-23T02:08:03;48.83;;;17.08;;
40787;SDS011;26497;52.494;7.546;2022-10-23T02:10:33;46.78;;;17.90;;
40787;SDS011;26497;52.494;7.546;2022-10-23T02:13:08;50.75;;;19.20;;
40787;SDS011;26497;52.494;7.546;2022-10-23T02:15:44;66.63;;;20.98;;
40787;SDS011;26497;52.494;7.546;2022-10-23T02:18:14;74.38;;;20.92;;
40787;SDS011;26497;52.494;7.546;2022-10-23T02:20:59;59.10;;;18.60;;
40787;SDS011;26497;52.494;7.546;2022-10-23T02:23:33;59.75;;;17.42;;
40787;SDS011;26497;52.494;7.546;2022-10-23T02:26:05;81.53;;;19.83;;
40787;SDS011;26497;52.494;7.546;2022-10-23T02:28:42;75.38;;;22.98;;
40787;SDS011;26497;52.494;7.546;2022-10-23T02:31:15;63.42;;;19.00;;
40787;SDS011;26497;52.494;7.546;2022-10-23T02:33:46;71.20;;;20.83;;
40787;SDS011;26497;52.494;7.546;2022-10-23T02:36:14;71.00;;;21.08;;
40787;SDS011;26497;52.494;7.546;2022-10-23T02:38:44;53.08;;;18.88;;
40787;SDS011;26497;52.494;7.546;2022-10-23T02:41:19;64.10;;;19.85;;
40787;SDS011;26497;52.494;7.546;2022-10-23T02:44:04;79.65;;;22.13;;
40787;SDS011;26497;52.494;7.546;2022-10-23T02:46:45;91.63;;;23.08;;
40787;SDS011;26497;52.494;7.546;2022-10-23T02:49:19;62.85;;;20.00;;
40787;SDS011;26497;52.494;7.546;2022-10-23T02:51:56;83.00;;;23.50;;
40787;SDS011;26497;52.494;7.546;2022-10-23T02:54:42;80.43;;;23.50;;
40787;SDS011;26497;52.494;7.546;2022-10-23T02:57:35;91.85;;;23.73;;
40787;SDS011;26497;52.494;7.546;2022-10-23T03:00:19;92.68;;;25.42;;
40787;SDS011;26497;52.494;7.546;2022-10-23T03:02:48;101.07;;;25.42;;
40787;SDS011;26497;52.494;7.546;2022-10-23T03:05:24;85.30;;;26.25;;
40787;SDS011;26497;52.494;7.546;2022-10-23T03:07:55;97.78;;;24.92;;
40787;SDS011;26497;52.494;7.546;2022-10-23T03:10:23;93.78;;;26.17;;
40787;SDS011;26497;52.494;7.546;2022-10-23T03:12:50;81.75;;;24.98;;
40787;SDS011;26497;52.494;7.546;2022-10-23T03:15:19;93.78;;;27.88;;
40787;SDS011;26497;52.494;7.546;2022-10-23T03:17:46;81.18;;;24.38;;
40787;SDS011;26497;52.494;7.546;2022-10-23T03:20:13;90.63;;;24.45;;
40787;SDS011;26497;52.494;7.546;2022-10-23T03:22:40;79.18;;;24.05;;
40787;SDS011;26497;52.494;7.546;2022-10-23T03:25:08;99.60;;;25.17;;
40787;SDS011;26497;52.494;7.546;2022-10-23T03:27:35;87.97;;;24.33;;
40787;SDS011;26497;52.494;7.546;2022-10-23T03:30:03;88.75;;;24.55;;
40787;SDS011;26497;52.494;7.546;2022-10-23T03:32:34;81.53;;;24.02;;
40787;SDS011;26497;52.494;7.546;2022-10-23T03:35:01;86.88;;;24.95;;
40787;SDS011;26497;52.494;7.546;2022-10-23T03:37:28;81.13;;;24.25;;
40787;SDS011;26497;52.494;7.546;2022-10-23T03:39:55;66.05;;;21.65;;
40787;SDS011;26497;52.494;7.546;2022-10-23T03:42:22;64.47;;;20.70;;
40787;SDS011;26497;52.494;7.546;2022-10-23T03:44:49;76.32;;;20.92;;
40787;SDS011;26497;52.494;7.546;2022-10-23T03:47:16;63.25;;;18.02;;
40787;SDS011;26497;52.494;7.546;2022-10-23T03:49:45;52.03;;;17.48;;
40787;SDS011;26497;52.494;7.546;2022-10-23T03:52:12;70.50;;;21.23;;
40787;SDS011;26497;52.494;7.546;2022-10-23T03:54:39;84.18;;;22.48;;
40787;SDS011;26497;52.494;7.546;2022-10-23T03:57:06;80.70;;;22.85;;
40787;SDS011;26497;52.494;7.546;2022-10-23T03:59:33;87.45;;;23.83;;
40787;SDS011;26497;52.494;7.546;2022-10-23T04:02:01;95.03;;;23.02;;
40787;SDS011;26497;52.494;7.546;2022-10-23T04:04:28;83.10;;;22.48;;
40787;SDS011;26497;52.494;7.546;2022-10-23T04:06:56;78.00;;;22.85;;
40787;SDS011;26497;52.494;7.546;2022-10-23T04:09:23;57.42;;;19.25;;
40787;SDS011;26497;52.494;7.546;2022-10-23T04:11:50;73.88;;;21.70;;
40787;SDS011;26497;52.494;7.546;2022-10-23T04:14:17;93.38;;;23.85;;
40787;SDS011;26497;52.494;7.546;2022-10-23T04:16:45;80.28;;;22.58;;
40787;SDS011;26497;52.494;7.546;2022-10-23T04:19:12;82.03;;;23.17;;
40787;SDS011;26497;52.494;7.546;2022-10-23T04:21:41;74.18;;;19.98;;
40787;SDS011;26497;52.494;7.546;2022-10-23T04:24:09;86.22;;;22.20;;
40787;SDS011;26497;52.494;7.546;2022-10-23T04:26:36;74.70;;;22.75;;
40787;SDS011;26497;52.494;7.546;2022-10-23T04:29:03;60.38;;;19.35;;
40787;SDS011;26497;52.494;7.546;2022-10-23T04:31:30;74.53;;;21.45;;
40787;SDS011;26497;52.494;7.546;2022-10-23T04:33:58;77.45;;;19.38;;
40787;SDS011;26497;52.494;7.546;2022-10-23T04:36:25;44.58;;;17.58;;
40787;SDS011;26497;52.494;7.546;2022-10-23T04:38:52;91.55;;;22.05;;
40787;SDS011;26497;52.494;7.546;2022-10-23T04:41:20;67.32;;;18.98;;
40787;SDS011;26497;52.494;7.546;2022-10-23T04:43:48;75.35;;;21.67;;
40787;SDS011;26497;52.494;7.546;2022-10-23T04:46:15;70.80;;;19.90;;
40787;SDS011;26497;52.494;7.546;2022-10-23T04:48:42;72.85;;;19.60;;
40787;SDS011;26497;52.494;7.546;2022-10-23T04:51:09;78.85;;;20.23;;
40787;SDS011;26497;52.494;7.546;2022-10-23T04:53:36;74.43;;;20.55;;
40787;SDS011;26497;52.494;7.546;2022-10-23T04:56:04;73.05;;;19.08;;
40787;SDS011;26497;52.494;7.546;2022-10-23T04:58:33;48.97;;;18.20;;
40787;SDS011;26497;52.494;7.546;2022-10-23T05:01:00;65.70;;;20.77;;
40787;SDS011;26497;52.494;7.546;2022-10-23T05:03:27;66.20;;;19.60;;
40787;SDS011;26497;52.494;7.546;2022-10-23T05:05:54;71.05;;;19.52;;
40787;SDS011;26497;52.494;7.546;2022-10-23T05:08:22;55.70;;;19.23;;
40787;SDS011;26497;52.494;7.546;2022-10-23T05:10:49;62.42;;;17.65;;
40787;SDS011;26497;52.494;7.546;2022-10-23T05:13:17;68.25;;;20.50;;
40787;SDS011;26497;52.494;7.546;2022-10-23T05:15:46;69.25;;;21.92;;
40787;SDS011;26497;52.494;7.546;2022-10-23T05:18:17;65.07;;;19.13;;
40787;SDS011;26497;52.494;7.546;2022-10-23T05:20:47;53.13;;;17.25;;
40787;SDS011;26497;52.494;7.546;2022-10-23T05:23:19;53.58;;;16.15;;
40787;SDS011;26497;52.494;7.546;2022-10-23T05:25:49;53.28;;;18.10;;
40787;SDS011;26497;52.494;7.546;2022-10-23T05:28:16;61.33;;;16.55;;
40787;SDS011;26497;52.494;7.546;2022-10-23T05:30:43;66.88;;;18.20;;
40787;SDS011;26497;52.494;7.546;2022-10-23T05:33:12;55.92;;;17.17;;
40787;SDS011;26497;52.494;7.546;2022-10-23T05:35:39;64.57;;;18.25;;
40787;SDS011;26497;52.494;7.546;2022-10-23T05:38:07;64.68;;;18.58;;
40787;SDS011;26497;52.494;7.546;2022-10-23T05:40:35;62.35;;;18.52;;
40787;SDS011;26497;52.494;7.546;2022-10-23T05:43:02;64.38;;;18.77;;
40787;SDS011;26497;52.494;7.546;2022-10-23T05:45:29;72.35;;;21.00;;
40787;SDS011;26497;52.494;7.546;2022-10-23T05:47:56;63.40;;;18.42;;
40787;SDS011;26497;52.494;7.546;2022-10-23T05:50:25;67.68;;;19.58;;
40787;SDS011;26497;52.494;7.546;2022-10-23T05:52:52;70.97;;;19.15;;
40787;SDS011;26497;52.494;7.546;2022-10-23T05:55:19;68.70;;;19.13;;
40787;SDS011;26497;52.494;7.546;2022-10-23T05:57:46;60.75;;;18.77;;
40787;SDS011;26497;52.494;7.546;2022-10-23T06:00:14;72.78;;;20.25;;
40787;SDS011;26497;52.494;7.546;2022-10-23T06:02:42;61.58;;;19.00;;
